Time;durP1;ratioP1;P1;durP2;ratioP2;P2;SDS_P1;SDS_P2;PMS_P1;PMS_P2;Temp;Humidity;BMP_temperature;BMP_pressure;BME280_temperature;BME280_humidity;BME280_pressure;Samples;Min_cycle;Max_cycle;Signal;HPM_P1;HPM_P2
2024/01/13 00:00:25;;;;;;;135.10;35.47;;;;;;;;;;5016440;28;20392;-53
2024/01/13 00:02:51;;;;;;;114.50;34.58;;;;;;;;;;5023114;28;20567;-56
2024/01/13 00:05:18;;;;;;;108.78;33.90;;;;;;;;;;5017404;28;20104;-54
2024/01/13 00:07:44;;;;;;;123.63;36.15;;;;;;;;;;5025324;28;20026;-54
2024/01/13 00:10:10;;;;;;;125.20;37.13;;;;;;;;;;5012608;28;20032;-56
2024/01/13 00:12:36;;;;;;;122.93;35.67;;;;;;;;;;5018653;28;20037;-53
2024/01/13 00:15:02;;;;;;;117.55;35.33;;;;;;;;;;5018251;28;20115;-53
2024/01/13 00:17:28;;;;;;;128.68;38.22;;;;;;;;;;5012165;28;20047;-53
2024/01/13 00:19:54;;;;;;;140.20;39.92;;;;;;;;;;5016487;28;20588;-53
2024/01/13 00:22:20;;;;;;;153.00;41.13;;;;;;;;;;5028045;28;20037;-53
2024/01/13 00:24:46;;;;;;;153.65;44.53;;;;;;;;;;5015616;28;20033;-54
2024/01/13 00:27:12;;;;;;;135.32;39.45;;;;;;;;;;5022101;28;20454;-56
2024/01/13 00:29:38;;;;;;;132.10;37.83;;;;;;;;;;5015046;28;20504;-53
2024/01/13 00:32:04;;;;;;;136.70;39.78;;;;;;;;;;5021778;28;20719;-53
2024/01/13 00:34:30;;;;;;;136.45;39.38;;;;;;;;;;5013968;28;20030;-54
2024/01/13 00:36:56;;;;;;;157.60;38.42;;;;;;;;;;5016923;28;20080;-54
2024/01/13 00:39:22;;;;;;;144.63;39.33;;;;;;;;;;5018184;28;20026;-54
2024/01/13 00:41:47;;;;;;;124.65;36.72;;;;;;;;;;5022101;28;20476;-53
2024/01/13 00:44:13;;;;;;;117.47;35.05;;;;;;;;;;5019397;28;20037;-54
2024/01/13 00:46:39;;;;;;;122.60;36.55;;;;;;;;;;5018486;28;20061;-53
2024/01/13 00:49:05;;;;;;;121.00;35.38;;;;;;;;;;5014031;28;20030;-54
2024/01/13 00:51:33;;;;;;;118.88;37.63;;;;;;;;;;5012360;28;20033;-54
2024/01/13 00:53:59;;;;;;;123.03;33.80;;;;;;;;;;5013160;28;20024;-56
2024/01/13 00:56:25;;;;;;;117.00;36.85;;;;;;;;;;5019009;28;20404;-55
2024/01/13 00:58:51;;;;;;;120.63;33.45;;;;;;;;;;5020558;28;20429;-52
2024/01/13 01:01:17;;;;;;;113.78;32.70;;;;;;;;;;5021560;28;20026;-53
2024/01/13 01:03:43;;;;;;;134.80;38.28;;;;;;;;;;5014358;28;20030;-51
2024/01/13 01:06:09;;;;;;;125.88;35.10;;;;;;;;;;5019881;28;20403;-52
2024/01/13 01:08:35;;;;;;;103.35;31.23;;;;;;;;;;5010448;28;20038;-53
2024/01/13 01:11:01;;;;;;;125.13;35.70;;;;;;;;;;5017806;28;20046;-54
2024/01/13 01:13:27;;;;;;;115.30;33.95;;;;;;;;;;5024308;28;20022;-56
2024/01/13 01:15:53;;;;;;;109.70;31.30;;;;;;;;;;5017839;28;20049;-55
2024/01/13 01:18:19;;;;;;;116.80;32.47;;;;;;;;;;5017393;28;20454;-54
2024/01/13 01:20:45;;;;;;;111.07;30.45;;;;;;;;;;5015846;28;20049;-56
2024/01/13 01:23:11;;;;;;;135.43;33.97;;;;;;;;;;5019943;28;20021;-55
2024/01/13 01:25:37;;;;;;;118.88;32.35;;;;;;;;;;5014880;28;20399;-56
2024/01/13 01:28:03;;;;;;;113.90;33.42;;;;;;;;;;5019279;28;20472;-54
2024/01/13 01:30:29;;;;;;;124.15;34.25;;;;;;;;;;5017085;28;20095;-52
2024/01/13 01:32:55;;;;;;;130.10;35.95;;;;;;;;;;5016845;28;20447;-54
2024/01/13 01:35:21;;;;;;;145.60;36.35;;;;;;;;;;5013045;28;20505;-56
2024/01/13 01:37:47;;;;;;;122.32;33.83;;;;;;;;;;5014575;28;20462;-52
2024/01/13 01:40:14;;;;;;;118.95;36.80;;;;;;;;;;5017813;28;20026;-53
2024/01/13 01:42:40;;;;;;;125.43;37.95;;;;;;;;;;5015337;28;20032;-53
2024/01/13 01:45:06;;;;;;;127.72;36.60;;;;;;;;;;5016322;28;20030;-54
2024/01/13 01:47:33;;;;;;;131.55;34.92;;;;;;;;;;5016237;28;20039;-56
2024/01/13 01:49:59;;;;;;;136.32;38.30;;;;;;;;;;5012785;28;20034;-54
2024/01/13 01:52:25;;;;;;;127.63;38.33;;;;;;;;;;5017672;28;20025;-54
2024/01/13 01:54:51;;;;;;;123.75;36.20;;;;;;;;;;5013371;28;20472;-55
2024/01/13 01:57:19;;;;;;;141.75;38.20;;;;;;;;;;5020545;28;20480;-55
2024/01/13 01:59:45;;;;;;;102.18;32.83;;;;;;;;;;5011372;28;20403;-55
2024/01/13 02:02:11;;;;;;;129.13;37.60;;;;;;;;;;5015985;28;20026;-54
2024/01/13 02:04:37;;;;;;;119.28;35.28;;;;;;;;;;5011137;28;20030;-55
2024/01/13 02:07:03;;;;;;;122.32;37.28;;;;;;;;;;5021076;28;20030;-56
2024/01/13 02:09:30;;;;;;;106.82;34.10;;;;;;;;;;5013021;28;20052;-52
2024/01/13 02:11:56;;;;;;;106.55;32.50;;;;;;;;;;5018071;28;20022;-53
2024/01/13 02:14:22;;;;;;;113.53;35.00;;;;;;;;;;5011202;28;20080;-55
2024/01/13 02:16:48;;;;;;;114.78;36.83;;;;;;;;;;5014302;28;20050;-54
2024/01/13 02:19:14;;;;;;;96.00;32.78;;;;;;;;;;5013668;28;20124;-54
2024/01/13 02:21:40;;;;;;;101.40;33.17;;;;;;;;;;5016890;28;20510;-54
2024/01/13 02:24:06;;;;;;;95.82;32.75;;;;;;;;;;5012737;28;20030;-55
2024/01/13 02:26:34;;;;;;;106.70;31.80;;;;;;;;;;5020378;28;20424;-53
2024/01/13 02:29:00;;;;;;;95.07;31.65;;;;;;;;;;5014514;28;20492;-56
2024/01/13 02:31:26;;;;;;;96.22;31.35;;;;;;;;;;5012115;28;20038;-57
2024/01/13 02:33:52;;;;;;;92.78;28.60;;;;;;;;;;5015208;28;20057;-55
2024/01/13 02:36:18;;;;;;;90.40;29.17;;;;;;;;;;5023205;28;20021;-53
2024/01/13 02:38:44;;;;;;;103.97;30.17;;;;;;;;;;5017125;28;20033;-55
2024/01/13 02:41:11;;;;;;;90.43;30.88;;;;;;;;;;5022804;28;20040;-52
2024/01/13 02:43:37;;;;;;;91.45;27.10;;;;;;;;;;5015622;28;20140;-53
2024/01/13 02:46:03;;;;;;;89.57;29.80;;;;;;;;;;5015144;28;20041;-54
2024/01/13 02:48:38;;;;;;;90.28;30.42;;;;;;;;;;5018387;28;20029;-55
2024/01/13 02:51:05;;;;;;;107.47;32.10;;;;;;;;;;5020372;28;20068;-53
2024/01/13 02:53:31;;;;;;;103.03;32.40;;;;;;;;;;5017181;28;20026;-56
2024/01/13 02:55:57;;;;;;;90.55;28.83;;;;;;;;;;5017858;28;20026;-53
2024/01/13 02:58:23;;;;;;;99.53;31.08;;;;;;;;;;5023450;28;20022;-54
2024/01/13 03:00:49;;;;;;;95.28;30.08;;;;;;;;;;5018643;28;20025;-52
2024/01/13 03:03:15;;;;;;;99.32;31.23;;;;;;;;;;5017740;28;20057;-54
2024/01/13 03:05:41;;;;;;;95.07;31.35;;;;;;;;;;5014975;28;20041;-55
2024/01/13 03:08:07;;;;;;;104.63;31.95;;;;;;;;;;5021430;28;20037;-54
2024/01/13 03:10:33;;;;;;;96.45;30.10;;;;;;;;;;5016862;28;20105;-53
2024/01/13 03:12:59;;;;;;;94.90;31.20;;;;;;;;;;5024136;28;20380;-55
2024/01/13 03:15:25;;;;;;;102.13;32.85;;;;;;;;;;5020455;28;20398;-57
2024/01/13 03:17:50;;;;;;;92.85;30.00;;;;;;;;;;5025811;28;20117;-54
2024/01/13 03:20:16;;;;;;;85.72;29.17;;;;;;;;;;5012651;28;20108;-55
2024/01/13 03:22:42;;;;;;;89.85;29.63;;;;;;;;;;5019477;28;20034;-54
2024/01/13 03:25:08;;;;;;;105.97;30.70;;;;;;;;;;5016008;28;20034;-55
2024/01/13 03:27:34;;;;;;;96.28;29.70;;;;;;;;;;5019397;28;20507;-53
2024/01/13 03:30:00;;;;;;;95.13;31.88;;;;;;;;;;5013264;28;20045;-56
2024/01/13 03:32:26;;;;;;;110.53;31.52;;;;;;;;;;5017290;28;20047;-52
2024/01/13 03:34:52;;;;;;;91.13;29.42;;;;;;;;;;5014314;28;20018;-56
2024/01/13 03:37:18;;;;;;;94.53;30.13;;;;;;;;;;5017184;28;20026;-55
2024/01/13 03:39:44;;;;;;;102.30;31.88;;;;;;;;;;5018454;28;20029;-55
2024/01/13 03:42:10;;;;;;;95.45;31.10;;;;;;;;;;5017421;28;20072;-53
2024/01/13 03:44:36;;;;;;;94.55;31.98;;;;;;;;;;5018063;28;20033;-52
2024/01/13 03:47:02;;;;;;;100.55;33.17;;;;;;;;;;5015405;28;20057;-53
2024/01/13 03:49:28;;;;;;;87.93;28.25;;;;;;;;;;5017861;28;20087;-54
2024/01/13 03:51:54;;;;;;;102.00;30.65;;;;;;;;;;5015824;28;20489;-55
2024/01/13 03:54:19;;;;;;;82.75;29.00;;;;;;;;;;5022202;28;20026;-55
2024/01/13 03:56:46;;;;;;;92.00;28.17;;;;;;;;;;5014684;28;20022;-54
2024/01/13 03:59:14;;;;;;;83.93;27.27;;;;;;;;;;5017697;28;20025;-57
2024/01/13 04:01:40;;;;;;;90.50;28.30;;;;;;;;;;5012810;28;20021;-53
2024/01/13 04:04:06;;;;;;;93.90;28.38;;;;;;;;;;5020419;28;20037;-54
2024/01/13 04:06:32;;;;;;;81.88;26.33;;;;;;;;;;5018031;28;20029;-54
2024/01/13 04:08:58;;;;;;;80.88;26.38;;;;;;;;;;5016970;28;20025;-54
2024/01/13 04:11:24;;;;;;;87.70;25.10;;;;;;;;;;5014223;28;20107;-54
2024/01/13 04:13:50;;;;;;;80.68;26.73;;;;;;;;;;5023197;28;20079;-54
2024/01/13 04:16:16;;;;;;;73.70;23.52;;;;;;;;;;5017435;28;20040;-57
2024/01/13 04:18:42;;;;;;;69.95;25.23;;;;;;;;;;5023645;28;20017;-54
2024/01/13 04:21:08;;;;;;;69.90;23.95;;;;;;;;;;5013734;28;20369;-53
2024/01/13 04:23:35;;;;;;;64.55;22.98;;;;;;;;;;5020883;28;20480;-55
2024/01/13 04:26:00;;;;;;;74.68;24.92;;;;;;;;;;5016565;28;20034;-56
2024/01/13 04:28:26;;;;;;;72.78;23.73;;;;;;;;;;5025221;28;20029;-55
2024/01/13 04:30:52;;;;;;;63.42;22.80;;;;;;;;;;5015106;28;20465;-54
2024/01/13 04:33:18;;;;;;;73.43;24.63;;;;;;;;;;5026485;28;20030;-56
2024/01/13 04:35:44;;;;;;;68.80;23.85;;;;;;;;;;5012252;28;20448;-54
2024/01/13 04:38:10;;;;;;;62.40;24.10;;;;;;;;;;5025102;28;20385;-53
2024/01/13 04:40:37;;;;;;;61.60;21.50;;;;;;;;;;5012582;28;20022;-53
2024/01/13 04:43:04;;;;;;;59.08;20.33;;;;;;;;;;5022101;28;20120;-51
2024/01/13 04:45:30;;;;;;;65.95;24.63;;;;;;;;;;5011065;28;20026;-57
2024/01/13 04:47:56;;;;;;;67.78;23.73;;;;;;;;;;5017066;28;20057;-55
2024/01/13 04:50:22;;;;;;;68.13;23.35;;;;;;;;;;5012828;28;20112;-53
2024/01/13 04:52:48;;;;;;;53.25;20.98;;;;;;;;;;5010466;28;20250;-54
2024/01/13 04:55:14;;;;;;;64.22;22.77;;;;;;;;;;5016238;28;20022;-54
2024/01/13 04:57:40;;;;;;;60.50;21.90;;;;;;;;;;5015014;28;20048;-56
2024/01/13 05:00:07;;;;;;;70.47;23.70;;;;;;;;;;5017165;28;20488;-56
2024/01/13 05:02:33;;;;;;;60.08;20.92;;;;;;;;;;5013527;28;20052;-55
2024/01/13 05:04:59;;;;;;;67.60;21.00;;;;;;;;;;5012933;28;20026;-54
2024/01/13 05:07:25;;;;;;;65.55;21.77;;;;;;;;;;5018205;28;20030;-55
2024/01/13 05:09:51;;;;;;;57.45;22.85;;;;;;;;;;5011554;28;20095;-56
2024/01/13 05:12:17;;;;;;;69.68;23.92;;;;;;;;;;5019264;28;20029;-57
2024/01/13 05:14:44;;;;;;;62.90;24.20;;;;;;;;;;5018233;28;20406;-53
2024/01/13 05:17:10;;;;;;;72.10;26.05;;;;;;;;;;5014150;28;20089;-53
2024/01/13 05:19:36;;;;;;;76.63;25.40;;;;;;;;;;5011909;28;20033;-55
2024/01/13 05:22:02;;;;;;;70.97;25.00;;;;;;;;;;5015120;28;20025;-55
2024/01/13 05:24:28;;;;;;;70.07;25.00;;;;;;;;;;5017555;28;20025;-53
2024/01/13 05:26:54;;;;;;;64.35;24.05;;;;;;;;;;5017774;28;20026;-55
2024/01/13 05:29:20;;;;;;;64.32;24.95;;;;;;;;;;5015731;28;20025;-55
2024/01/13 05:31:49;;;;;;;77.57;24.70;;;;;;;;;;5017072;28;20057;-57
2024/01/13 05:34:15;;;;;;;71.28;24.50;;;;;;;;;;5014173;28;20033;-56
2024/01/13 05:36:41;;;;;;;67.10;23.10;;;;;;;;;;5013687;28;20141;-56
2024/01/13 05:39:07;;;;;;;58.55;21.90;;;;;;;;;;5013777;28;20022;-55
2024/01/13 05:41:33;;;;;;;66.90;25.42;;;;;;;;;;5013448;28;20033;-56
2024/01/13 05:43:59;;;;;;;58.38;23.77;;;;;;;;;;5012062;28;20032;-53
2024/01/13 05:46:25;;;;;;;70.57;25.27;;;;;;;;;;5015189;28;20068;-53
2024/01/13 05:48:51;;;;;;;72.57;23.55;;;;;;;;;;5014613;28;20075;-53
2024/01/13 05:51:17;;;;;;;63.30;22.60;;;;;;;;;;5005851;28;20072;-55
2024/01/13 05:53:44;;;;;;;63.25;23.70;;;;;;;;;;5013657;28;20036;-56
2024/01/13 05:56:10;;;;;;;70.53;24.10;;;;;;;;;;5012114;28;20029;-56
2024/01/13 05:58:37;;;;;;;73.45;25.10;;;;;;;;;;5017214;28;20362;-54
2024/01/13 06:01:03;;;;;;;73.40;23.58;;;;;;;;;;5013653;28;20025;-55
2024/01/13 06:03:29;;;;;;;57.65;22.20;;;;;;;;;;5016130;28;20038;-56
2024/01/13 06:05:55;;;;;;;67.47;21.95;;;;;;;;;;5016458;28;20056;-51
2024/01/13 06:08:21;;;;;;;64.22;24.02;;;;;;;;;;5014830;28;20033;-52
2024/01/13 06:10:47;;;;;;;69.93;23.83;;;;;;;;;;5016279;28;20029;-54
2024/01/13 06:13:13;;;;;;;69.15;23.65;;;;;;;;;;5016390;28;20044;-56
2024/01/13 06:15:38;;;;;;;67.25;25.48;;;;;;;;;;5019639;28;20117;-55
2024/01/13 06:18:04;;;;;;;62.60;22.60;;;;;;;;;;5014813;28;20056;-55
2024/01/13 06:20:31;;;;;;;69.03;24.80;;;;;;;;;;5019379;28;20021;-52
2024/01/13 06:22:57;;;;;;;58.75;22.50;;;;;;;;;;5015565;28;20037;-54
2024/01/13 06:25:22;;;;;;;62.47;21.90;;;;;;;;;;5017094;28;20467;-53
2024/01/13 06:27:48;;;;;;;61.65;23.92;;;;;;;;;;5016119;28;20022;-55
2024/01/13 06:30:14;;;;;;;64.18;23.90;;;;;;;;;;5020355;28;20092;-56
2024/01/13 06:32:40;;;;;;;62.13;23.90;;;;;;;;;;5017565;28;20118;-52
2024/01/13 06:35:07;;;;;;;62.90;23.45;;;;;;;;;;5016060;28;20058;-53
2024/01/13 06:37:33;;;;;;;61.30;22.65;;;;;;;;;;5014814;28;20018;-53
2024/01/13 06:39:59;;;;;;;69.65;24.45;;;;;;;;;;5014182;28;20026;-53
2024/01/13 06:42:25;;;;;;;64.00;23.98;;;;;;;;;;5017151;28;20057;-53
2024/01/13 06:44:51;;;;;;;55.92;22.23;;;;;;;;;;5014577;28;20116;-55
2024/01/13 06:47:17;;;;;;;58.63;21.75;;;;;;;;;;5016421;28;20045;-51
2024/01/13 06:49:43;;;;;;;55.63;20.60;;;;;;;;;;5016167;28;20484;-51
2024/01/13 06:52:12;;;;;;;52.20;19.92;;;;;;;;;;5016712;28;20030;-52
2024/01/13 06:54:38;;;;;;;54.60;21.38;;;;;;;;;;5016237;28;21049;-54
2024/01/13 06:57:04;;;;;;;54.38;21.73;;;;;;;;;;5017355;28;20139;-53
2024/01/13 06:59:30;;;;;;;55.97;21.92;;;;;;;;;;5015139;28;20419;-54
2024/01/13 07:01:56;;;;;;;48.65;22.17;;;;;;;;;;5013644;28;20025;-53
2024/01/13 07:04:21;;;;;;;51.50;20.08;;;;;;;;;;5014716;28;20508;-56
2024/01/13 07:06:47;;;;;;;54.78;21.77;;;;;;;;;;5014250;28;20141;-53
2024/01/13 07:09:14;;;;;;;47.40;19.75;;;;;;;;;;5012630;28;20029;-56
2024/01/13 07:11:40;;;;;;;49.60;21.55;;;;;;;;;;5012330;28;20029;-53
2024/01/13 07:14:06;;;;;;;54.35;23.10;;;;;;;;;;5011200;28;20026;-52
2024/01/13 07:16:32;;;;;;;47.38;21.33;;;;;;;;;;5010305;28;20038;-53
2024/01/13 07:18:59;;;;;;;54.40;23.00;;;;;;;;;;5011106;28;20034;-53
2024/01/13 07:21:25;;;;;;;49.60;22.52;;;;;;;;;;5010352;28;20030;-50
2024/01/13 07:23:51;;;;;;;52.88;19.52;;;;;;;;;;5009428;28;20032;-54
2024/01/13 07:26:17;;;;;;;52.88;20.33;;;;;;;;;;5004857;28;20057;-51
2024/01/13 07:28:43;;;;;;;54.42;21.85;;;;;;;;;;5011462;28;20026;-52
2024/01/13 07:31:09;;;;;;;44.22;20.10;;;;;;;;;;5008188;28;20488;-52
2024/01/13 07:33:35;;;;;;;52.53;21.55;;;;;;;;;;5010256;28;20034;-53
2024/01/13 07:36:01;;;;;;;47.83;21.00;;;;;;;;;;5011764;28;20056;-54
2024/01/13 07:38:27;;;;;;;44.40;21.02;;;;;;;;;;5017099;28;20037;-55
2024/01/13 07:40:53;;;;;;;53.72;23.40;;;;;;;;;;5015549;28;20033;-56
2024/01/13 07:43:20;;;;;;;48.58;21.60;;;;;;;;;;5014919;28;20032;-55
2024/01/13 07:45:46;;;;;;;47.17;23.23;;;;;;;;;;5013064;28;20030;-54
2024/01/13 07:48:12;;;;;;;52.25;22.70;;;;;;;;;;5020104;28;20026;-52
2024/01/13 07:50:38;;;;;;;49.55;24.05;;;;;;;;;;5014889;28;20030;-52
2024/01/13 07:53:04;;;;;;;51.88;23.40;;;;;;;;;;5018373;28;20030;-53
2024/01/13 07:55:30;;;;;;;58.42;23.80;;;;;;;;;;5016229;28;20037;-54
2024/01/13 07:57:56;;;;;;;59.20;25.20;;;;;;;;;;5017764;28;20032;-56
2024/01/13 08:00:23;;;;;;;59.58;25.13;;;;;;;;;;5014282;28;20069;-53
2024/01/13 08:02:49;;;;;;;53.15;24.98;;;;;;;;;;5019267;28;20022;-51
2024/01/13 08:05:15;;;;;;;56.03;24.98;;;;;;;;;;5024091;28;20061;-52
2024/01/13 08:07:41;;;;;;;66.75;27.40;;;;;;;;;;5019408;28;20115;-53
2024/01/13 08:10:07;;;;;;;55.72;25.60;;;;;;;;;;5015933;28;20034;-55
2024/01/13 08:12:33;;;;;;;57.63;25.15;;;;;;;;;;5014658;28;20075;-52
2024/01/13 08:14:59;;;;;;;75.10;29.98;;;;;;;;;;5015670;28;20485;-54
2024/01/13 08:17:25;;;;;;;62.35;27.25;;;;;;;;;;5017267;28;20022;-55
2024/01/13 08:19:51;;;;;;;59.28;24.70;;;;;;;;;;5017917;28;20022;-55
2024/01/13 08:22:17;;;;;;;56.42;24.25;;;;;;;;;;5018157;28;20036;-55
2024/01/13 08:24:43;;;;;;;59.83;24.88;;;;;;;;;;5013249;28;20040;-53
2024/01/13 08:27:09;;;;;;;58.33;25.55;;;;;;;;;;5018895;28;20045;-53
2024/01/13 08:29:35;;;;;;;51.13;24.02;;;;;;;;;;5017632;28;20033;-55
2024/01/13 08:32:01;;;;;;;51.70;24.55;;;;;;;;;;5022889;28;20117;-53
2024/01/13 08:34:26;;;;;;;48.72;22.77;;;;;;;;;;5014816;28;20402;-55
2024/01/13 08:36:52;;;;;;;46.58;22.70;;;;;;;;;;5018029;28;20124;-53
2024/01/13 08:39:18;;;;;;;48.78;22.70;;;;;;;;;;5013487;28;20052;-51
2024/01/13 08:41:44;;;;;;;44.58;22.63;;;;;;;;;;5016827;28;20105;-53
2024/01/13 08:44:10;;;;;;;43.85;21.05;;;;;;;;;;5016727;28;20037;-53
2024/01/13 08:46:36;;;;;;;45.03;21.58;;;;;;;;;;5014304;28;20045;-56
2024/01/13 08:49:04;;;;;;;44.00;21.00;;;;;;;;;;5016492;28;20034;-52
2024/01/13 08:51:30;;;;;;;42.08;19.27;;;;;;;;;;5015153;28;20076;-54
2024/01/13 08:53:56;;;;;;;53.55;22.73;;;;;;;;;;5009897;28;20026;-53
2024/01/13 08:56:22;;;;;;;45.25;21.23;;;;;;;;;;5011922;28;20432;-53
2024/01/13 08:58:47;;;;;;;40.55;20.40;;;;;;;;;;5005462;28;20480;-51
2024/01/13 09:01:13;;;;;;;42.28;19.27;;;;;;;;;;5011746;28;20105;-52
2024/01/13 09:03:40;;;;;;;40.38;19.58;;;;;;;;;;5012744;28;20049;-54
2024/01/13 09:06:06;;;;;;;39.65;18.42;;;;;;;;;;5010464;28;20029;-53
2024/01/13 09:08:32;;;;;;;37.00;18.65;;;;;;;;;;5007620;28;20113;-54
2024/01/13 09:10:58;;;;;;;42.72;20.15;;;;;;;;;;5009599;28;20030;-55
2024/01/13 09:13:24;;;;;;;34.45;18.20;;;;;;;;;;5008865;28;20087;-53
2024/01/13 09:15:50;;;;;;;29.80;16.20;;;;;;;;;;5008942;28;20049;-54
2024/01/13 09:18:16;;;;;;;35.13;16.83;;;;;;;;;;5012191;28;20029;-55
2024/01/13 09:20:42;;;;;;;31.05;15.43;;;;;;;;;;5012698;28;20022;-55
2024/01/13 09:23:08;;;;;;;31.70;16.35;;;;;;;;;;5016201;28;20042;-52
2024/01/13 09:25:33;;;;;;;30.20;15.60;;;;;;;;;;5011967;28;20029;-53
2024/01/13 09:27:59;;;;;;;33.15;16.23;;;;;;;;;;5011039;28;20034;-52
2024/01/13 09:30:25;;;;;;;30.77;15.50;;;;;;;;;;5014890;28;20030;-53
2024/01/13 09:32:51;;;;;;;34.58;15.38;;;;;;;;;;5013935;28;20034;-53
2024/01/13 09:35:18;;;;;;;29.27;14.57;;;;;;;;;;5017195;28;20033;-54
2024/01/13 09:37:43;;;;;;;27.85;14.85;;;;;;;;;;5006788;28;20812;-52
2024/01/13 09:40:10;;;;;;;29.27;14.45;;;;;;;;;;5012743;28;20145;-55
2024/01/13 09:42:43;;;;;;;32.20;15.07;;;;;;;;;;5018589;28;20407;-52
2024/01/13 09:45:10;;;;;;;33.95;16.88;;;;;;;;;;5010220;28;20026;-55
2024/01/13 09:47:36;;;;;;;29.67;15.90;;;;;;;;;;5013668;28;20069;-54
2024/01/13 09:50:04;;;;;;;32.95;13.63;;;;;;;;;;5012104;28;20030;-52
2024/01/13 09:52:30;;;;;;;27.38;14.90;;;;;;;;;;5013185;28;20396;-53
2024/01/13 09:55:00;;;;;;;32.78;15.52;;;;;;;;;;5009127;28;20050;-51
2024/01/13 09:57:26;;;;;;;32.28;14.85;;;;;;;;;;5016119;28;20096;-54
2024/01/13 09:59:52;;;;;;;29.95;15.13;;;;;;;;;;5010929;28;20021;-54
2024/01/13 10:02:18;;;;;;;28.85;14.35;;;;;;;;;;5013959;28;20029;-52
2024/01/13 10:04:44;;;;;;;34.83;14.82;;;;;;;;;;5020061;28;20164;-53
2024/01/13 10:07:11;;;;;;;31.10;15.15;;;;;;;;;;5020315;28;20026;-55
2024/01/13 10:09:38;;;;;;;30.83;15.57;;;;;;;;;;5020913;28;20116;-54
2024/01/13 10:12:08;;;;;;;28.55;14.77;;;;;;;;;;5017189;28;20125;-54
2024/01/13 10:14:43;;;;;;;28.60;13.80;;;;;;;;;;5013959;28;20100;-52
2024/01/13 10:17:09;;;;;;;26.20;13.60;;;;;;;;;;5014052;28;20026;-53
2024/01/13 10:19:38;;;;;;;26.42;14.15;;;;;;;;;;5021482;28;20021;-53
2024/01/13 10:22:05;;;;;;;27.13;12.38;;;;;;;;;;5017162;28;20018;-54
2024/01/13 10:24:31;;;;;;;26.50;14.05;;;;;;;;;;5010331;28;20026;-50
2024/01/13 10:26:57;;;;;;;25.30;13.05;;;;;;;;;;5002518;28;20639;-50
2024/01/13 10:29:23;;;;;;;25.63;12.02;;;;;;;;;;5011026;28;20026;-55
2024/01/13 10:31:53;;;;;;;23.48;12.77;;;;;;;;;;5013951;28;20069;-53
2024/01/13 10:34:19;;;;;;;22.45;11.48;;;;;;;;;;5005529;28;20137;-50
2024/01/13 10:36:45;;;;;;;21.05;11.43;;;;;;;;;;5010715;28;20044;-53
2024/01/13 10:39:11;;;;;;;23.58;11.32;;;;;;;;;;5016094;28;20539;-50
2024/01/13 10:41:38;;;;;;;23.73;12.25;;;;;;;;;;5015754;28;20033;-56
2024/01/13 10:44:07;;;;;;;21.90;11.15;;;;;;;;;;5008828;28;20030;-55
2024/01/13 10:46:34;;;;;;;20.55;11.15;;;;;;;;;;5010865;28;20030;-54
2024/01/13 10:49:02;;;;;;;21.77;11.80;;;;;;;;;;5013951;28;20104;-55
2024/01/13 10:51:48;;;;;;;20.73;10.90;;;;;;;;;;5014104;28;20096;-55
2024/01/13 10:54:14;;;;;;;22.52;10.93;;;;;;;;;;5020844;28;20071;-54
2024/01/13 10:56:41;;;;;;;21.83;11.93;;;;;;;;;;5012289;28;20022;-53
2024/01/13 10:59:08;;;;;;;18.92;10.77;;;;;;;;;;5016417;28;20088;-51
2024/01/13 11:01:35;;;;;;;21.90;11.35;;;;;;;;;;5016368;28;20876;-52
2024/01/13 11:04:04;;;;;;;22.77;11.13;;;;;;;;;;5013615;28;20121;-54
2024/01/13 11:06:29;;;;;;;23.15;11.13;;;;;;;;;;5019341;28;20029;-56
2024/01/13 11:08:55;;;;;;;20.83;11.07;;;;;;;;;;5014498;28;20508;-54
2024/01/13 11:11:26;;;;;;;27.20;12.32;;;;;;;;;;5015016;28;20049;-53
2024/01/13 11:13:59;;;;;;;29.92;13.75;;;;;;;;;;5008808;28;20029;-52
2024/01/13 11:16:27;;;;;;;23.75;12.35;;;;;;;;;;5012502;28;20208;-52
2024/01/13 11:18:53;;;;;;;24.55;12.35;;;;;;;;;;5010681;28;20487;-54
2024/01/13 11:21:19;;;;;;;22.15;11.77;;;;;;;;;;5016039;28;20022;-54
2024/01/13 11:23:51;;;;;;;27.38;12.20;;;;;;;;;;5018879;28;20030;-54
2024/01/13 11:26:22;;;;;;;24.70;11.65;;;;;;;;;;5008202;28;20033;-56
2024/01/13 11:28:49;;;;;;;24.90;11.98;;;;;;;;;;5011103;28;20036;-52
2024/01/13 11:31:29;;;;;;;31.42;12.73;;;;;;;;;;5018526;28;20451;-52
2024/01/13 11:33:55;;;;;;;28.83;12.77;;;;;;;;;;5013772;28;20026;-53
2024/01/13 11:36:21;;;;;;;25.42;11.65;;;;;;;;;;5020593;28;20166;-53
2024/01/13 11:38:47;;;;;;;26.73;13.93;;;;;;;;;;5009989;28;20057;-54
2024/01/13 11:41:16;;;;;;;21.90;11.63;;;;;;;;;;5019302;28;20025;-53
2024/01/13 11:43:45;;;;;;;30.17;12.70;;;;;;;;;;5010135;28;20516;-53
2024/01/13 11:46:11;;;;;;;28.38;12.93;;;;;;;;;;5010568;28;20038;-55
2024/01/13 11:48:39;;;;;;;23.27;12.80;;;;;;;;;;5010306;28;20041;-55
2024/01/13 11:51:13;;;;;;;30.40;13.80;;;;;;;;;;5014634;28;20030;-52
2024/01/13 11:53:40;;;;;;;29.27;14.00;;;;;;;;;;5004959;28;20044;-54
2024/01/13 11:56:06;;;;;;;24.23;13.57;;;;;;;;;;5010017;28;20041;-53
2024/01/13 11:58:35;;;;;;;28.00;14.10;;;;;;;;;;5013827;28;20029;-54
2024/01/13 12:01:01;;;;;;;26.77;12.93;;;;;;;;;;5015528;28;20031;-54
2024/01/13 12:03:27;;;;;;;27.27;13.55;;;;;;;;;;5010252;28;20030;-54
2024/01/13 12:05:53;;;;;;;25.42;13.07;;;;;;;;;;5007831;28;20108;-55
2024/01/13 12:08:19;;;;;;;34.92;15.60;;;;;;;;;;5007893;28;20093;-52
2024/01/13 12:10:49;;;;;;;28.88;13.27;;;;;;;;;;5012282;28;20032;-52
2024/01/13 12:13:16;;;;;;;26.88;13.98;;;;;;;;;;5012908;28;20087;-53
2024/01/13 12:15:45;;;;;;;32.58;13.93;;;;;;;;;;5010565;28;20567;-54
2024/01/13 12:18:17;;;;;;;25.45;13.02;;;;;;;;;;5010011;28;20040;-52
2024/01/13 12:20:43;;;;;;;31.38;14.40;;;;;;;;;;5015070;28;20014;-52
2024/01/13 12:23:10;;;;;;;35.78;17.52;;;;;;;;;;5011903;28;20489;-54
2024/01/13 12:25:36;;;;;;;36.53;15.95;;;;;;;;;;5008503;28;20021;-52
2024/01/13 12:28:02;;;;;;;33.20;14.82;;;;;;;;;;5016335;28;20108;-56
2024/01/13 12:30:28;;;;;;;32.03;14.18;;;;;;;;;;5015314;28;20022;-54
2024/01/13 12:32:55;;;;;;;31.88;15.63;;;;;;;;;;5007454;28;20084;-55
2024/01/13 12:35:25;;;;;;;35.97;15.68;;;;;;;;;;5007400;28;20036;-55
2024/01/13 12:37:51;;;;;;;35.53;15.57;;;;;;;;;;5019717;28;20033;-52
2024/01/13 12:40:18;;;;;;;34.47;15.82;;;;;;;;;;5015708;28;20021;-54
2024/01/13 12:42:46;;;;;;;34.67;14.90;;;;;;;;;;5016818;28;20022;-54
2024/01/13 12:45:12;;;;;;;41.05;16.92;;;;;;;;;;5016842;28;20030;-56
2024/01/13 12:47:38;;;;;;;39.03;18.10;;;;;;;;;;5010265;28;20032;-53
2024/01/13 12:50:08;;;;;;;39.13;18.52;;;;;;;;;;5012376;28;20041;-55
2024/01/13 12:52:34;;;;;;;36.97;17.13;;;;;;;;;;5013907;28;20022;-56
2024/01/13 12:55:00;;;;;;;40.72;16.98;;;;;;;;;;5011914;28;20042;-55
2024/01/13 12:57:26;;;;;;;41.38;18.42;;;;;;;;;;5019340;28;20117;-51
2024/01/13 12:59:52;;;;;;;44.45;19.73;;;;;;;;;;5012018;28;20084;-53
2024/01/13 13:02:18;;;;;;;41.25;19.02;;;;;;;;;;5008855;28;20034;-51
2024/01/13 13:04:44;;;;;;;41.63;18.90;;;;;;;;;;5009248;28;20524;-52
2024/01/13 13:07:10;;;;;;;47.70;21.15;;;;;;;;;;5012547;28;20026;-53
2024/01/13 13:09:37;;;;;;;49.10;18.88;;;;;;;;;;5009023;28;20061;-57
2024/01/13 13:12:03;;;;;;;48.35;21.58;;;;;;;;;;5006842;28;20076;-53
2024/01/13 13:14:29;;;;;;;48.92;23.52;;;;;;;;;;5008386;28;20041;-53
2024/01/13 13:16:55;;;;;;;44.10;20.65;;;;;;;;;;5009443;28;20034;-52
2024/01/13 13:19:21;;;;;;;63.05;24.13;;;;;;;;;;5012107;28;20030;-53
2024/01/13 13:21:48;;;;;;;47.65;21.23;;;;;;;;;;5006835;28;20026;-51
2024/01/13 13:24:14;;;;;;;48.67;21.40;;;;;;;;;;5014987;28;20692;-56
2024/01/13 13:26:41;;;;;;;54.75;22.90;;;;;;;;;;5012260;28;20113;-55
2024/01/13 13:29:07;;;;;;;54.50;23.63;;;;;;;;;;5012700;28;20526;-53
2024/01/13 13:31:33;;;;;;;55.58;24.10;;;;;;;;;;5014883;28;20038;-52
2024/01/13 13:34:00;;;;;;;51.35;21.33;;;;;;;;;;5008697;28;20057;-54
2024/01/13 13:36:27;;;;;;;59.72;24.50;;;;;;;;;;5006779;28;20060;-56
2024/01/13 13:38:53;;;;;;;52.17;22.15;;;;;;;;;;5006763;28;20101;-53
2024/01/13 13:41:19;;;;;;;61.35;24.98;;;;;;;;;;5009561;28;20025;-55
2024/01/13 13:43:45;;;;;;;48.30;22.98;;;;;;;;;;5008679;28;20034;-54
2024/01/13 13:46:11;;;;;;;50.97;21.98;;;;;;;;;;5013263;28;20018;-53
2024/01/13 13:48:37;;;;;;;55.05;24.30;;;;;;;;;;5016572;28;20059;-53
2024/01/13 13:51:03;;;;;;;51.97;22.40;;;;;;;;;;5000151;28;20038;-52
2024/01/13 13:53:29;;;;;;;58.33;25.30;;;;;;;;;;5010208;28;20076;-54
2024/01/13 13:55:55;;;;;;;61.28;25.02;;;;;;;;;;5006156;28;20030;-54
2024/01/13 13:58:21;;;;;;;55.63;23.52;;;;;;;;;;5008246;28;20054;-57
2024/01/13 14:00:47;;;;;;;52.47;21.70;;;;;;;;;;5012880;28;20054;-54
2024/01/13 14:03:13;;;;;;;56.75;24.48;;;;;;;;;;5011440;28;20033;-53
2024/01/13 14:05:41;;;;;;;53.72;21.80;;;;;;;;;;5008262;28;20439;-52
2024/01/13 14:08:07;;;;;;;52.17;22.42;;;;;;;;;;5010668;28;20061;-54